createdAt,value
2022-07-30T00:01:44.464Z,67.40
2022-07-30T00:04:11.145Z,67.50
2022-07-30T00:06:39.786Z,67.80
2022-07-30T00:09:06.589Z,67.80
2022-07-30T00:11:33.476Z,68.30
2022-07-30T00:14:00.868Z,68.30
2022-07-30T00:16:28.337Z,68.50
2022-07-30T00:18:55.144Z,68.60
2022-07-30T00:21:35.929Z,68.50
2022-07-30T00:24:06.415Z,68.50
2022-07-30T00:26:33.348Z,68.40
2022-07-30T00:29:00.082Z,68.40
2022-07-30T00:31:28.603Z,68.60
2022-07-30T00:33:55.398Z,68.70
2022-07-30T00:36:22.150Z,68.80
2022-07-30T00:38:49.129Z,68.80
2022-07-30T00:41:16.141Z,68.80
2022-07-30T00:43:43.889Z,68.90
2022-07-30T00:46:11.237Z,68.90
2022-07-30T00:48:38.232Z,68.90
2022-07-30T00:51:05.104Z,69.20
2022-07-30T00:53:32.263Z,69.60
2022-07-30T00:55:59.268Z,69.60
2022-07-30T00:58:26.325Z,70.00
2022-07-30T01:00:53.610Z,70.20
2022-07-30T01:03:20.825Z,70.10
2022-07-30T01:05:47.710Z,70.20
2022-07-30T01:08:14.662Z,70.30
2022-07-30T01:10:41.441Z,70.50
2022-07-30T01:13:08.272Z,70.30
2022-07-30T01:15:34.984Z,70.30
2022-07-30T01:18:05.205Z,70.50
2022-07-30T01:21:00.695Z,70.50
2022-07-30T01:23:35.832Z,70.50
2022-07-30T01:26:07.444Z,70.50
2022-07-30T01:28:38.593Z,70.60
2022-07-30T01:31:07.461Z,70.70
2022-07-30T01:33:39.095Z,70.80
2022-07-30T01:36:10.684Z,71.00
2022-07-30T01:38:40.073Z,70.80
2022-07-30T01:41:07.808Z,70.80
2022-07-30T01:43:36.295Z,70.80
2022-07-30T01:46:05.203Z,70.80
2022-07-30T01:48:36.864Z,70.70
2022-07-30T01:51:05.954Z,71.00
2022-07-30T01:53:38.381Z,71.00
2022-07-30T01:56:10.514Z,71.00
2022-07-30T01:58:39.830Z,70.90
2022-07-30T02:01:19.408Z,71.10
2022-07-30T02:03:46.388Z,71.00
2022-07-30T02:06:28.748Z,71.00
2022-07-30T02:08:58.294Z,71.20
2022-07-30T02:11:45.598Z,71.20
2022-07-30T02:14:23.766Z,71.20
2022-07-30T02:16:54.428Z,71.40
2022-07-30T02:19:26.229Z,71.70
2022-07-30T02:22:11.076Z,71.80
2022-07-30T02:24:41.760Z,72.00
2022-07-30T02:27:15.041Z,71.80
2022-07-30T02:29:44.397Z,71.70
2022-07-30T02:32:15.578Z,71.70
2022-07-30T02:34:47.266Z,72.00
2022-07-30T02:37:16.043Z,72.10
2022-07-30T02:39:44.232Z,72.30
2022-07-30T02:42:14.551Z,72.40
2022-07-30T02:44:44.945Z,72.80
2022-07-30T02:47:13.942Z,72.80
2022-07-30T02:49:54.031Z,72.80
2022-07-30T02:52:24.021Z,72.50
2022-07-30T02:54:52.738Z,72.60
2022-07-30T02:57:21.079Z,72.90
2022-07-30T02:59:50.743Z,73.00
2022-07-30T03:02:18.293Z,73.30
2022-07-30T03:04:57.922Z,73.30
2022-07-30T03:07:27.221Z,73.40
2022-07-30T03:09:56.404Z,73.80
2022-07-30T03:12:25.688Z,73.60
2022-07-30T03:14:52.487Z,73.50
2022-07-30T03:17:21.506Z,73.20
2022-07-30T03:19:50.390Z,73.20
2022-07-30T03:22:19.159Z,73.30
2022-07-30T03:24:48.801Z,73.40
2022-07-30T03:27:17.047Z,73.30
2022-07-30T03:29:45.841Z,73.30
2022-07-30T03:32:13.815Z,73.20
2022-07-30T03:34:42.536Z,73.00
2022-07-30T03:37:11.200Z,72.90
2022-07-30T03:39:39.338Z,72.90
2022-07-30T03:42:07.832Z,72.90
2022-07-30T03:44:36.159Z,73.10
2022-07-30T03:47:07.104Z,73.40
2022-07-30T03:49:40.208Z,73.90
2022-07-30T03:52:07.507Z,74.40
2022-07-30T03:54:36.035Z,74.50
2022-07-30T03:57:28.404Z,74.50
2022-07-30T03:59:55.245Z,74.60
2022-07-30T04:02:22.459Z,74.70
2022-07-30T04:05:13.596Z,74.70
2022-07-30T04:07:44.809Z,74.80
2022-07-30T04:10:13.944Z,74.90
2022-07-30T04:13:00.667Z,75.10
2022-07-30T04:16:37.261Z,75.10
2022-07-30T04:18:19.998Z,75.10
2022-07-30T04:20:50.834Z,75.10
2022-07-30T04:23:19.581Z,75.10
2022-07-30T04:25:47.082Z,75.20
2022-07-30T04:28:14.837Z,75.30
2022-07-30T04:30:41.701Z,75.40
2022-07-30T04:33:08.713Z,75.40
2022-07-30T04:35:50.859Z,75.30
2022-07-30T04:38:39.289Z,75.40
2022-07-30T04:41:06.171Z,75.20
2022-07-30T04:43:52.539Z,75.10
2022-07-30T04:46:20.820Z,75.20
2022-07-30T04:48:52.088Z,75.60
2022-07-30T04:51:32.873Z,75.80
2022-07-30T04:54:00.374Z,76.20
2022-07-30T04:56:28.732Z,76.10
2022-07-30T04:58:56.971Z,76.30
2022-07-30T05:01:40.674Z,76.10
2022-07-30T05:04:10.105Z,76.10
2022-07-30T05:06:38.455Z,75.90
2022-07-30T05:09:06.275Z,76.00
2022-07-30T05:11:33.539Z,76.00
2022-07-30T05:14:00.612Z,76.20
2022-07-30T05:16:27.682Z,76.10
2022-07-30T05:18:56.415Z,76.10
2022-07-30T05:21:23.429Z,76.10
2022-07-30T05:23:55.639Z,76.30
2022-07-30T05:26:29.640Z,76.30
2022-07-30T05:28:57.906Z,76.40
2022-07-30T05:31:32.771Z,76.60
2022-07-30T05:34:03.457Z,76.80
2022-07-30T05:36:38.811Z,76.90
2022-07-30T05:39:05.731Z,76.90
2022-07-30T05:42:01.856Z,76.70
2022-07-30T05:44:42.124Z,76.60
2022-07-30T05:47:08.840Z,76.30
2022-07-30T05:49:35.873Z,76.00
2022-07-30T05:52:10.633Z,75.90
2022-07-30T05:54:37.436Z,75.80
2022-07-30T05:57:30.465Z,75.70
2022-07-30T05:59:57.703Z,75.80
2022-07-30T06:02:43.505Z,75.90
2022-07-30T06:05:25.191Z,75.90
2022-07-30T06:07:52.389Z,75.70
2022-07-30T06:10:22.004Z,75.70
2022-07-30T06:12:48.792Z,75.60
2022-07-30T06:15:21.711Z,75.50
2022-07-30T06:17:58.230Z,75.40
2022-07-30T06:20:39.776Z,75.30
2022-07-30T06:23:16.263Z,75.30
2022-07-30T06:25:57.953Z,75.20
2022-07-30T06:28:37.487Z,75.10
2022-07-30T06:31:09.351Z,75.00
2022-07-30T06:33:37.184Z,75.00
2022-07-30T06:36:04.317Z,74.80
2022-07-30T06:38:39.096Z,74.70
2022-07-30T06:41:12.653Z,74.40
2022-07-30T06:43:50.992Z,74.00
2022-07-30T06:46:38.031Z,73.70
2022-07-30T06:49:04.969Z,73.40
2022-07-30T06:51:32.646Z,73.10
2022-07-30T06:54:00.511Z,72.90
2022-07-30T06:56:53.696Z,72.20
2022-07-30T06:59:21.171Z,71.30
2022-07-30T07:02:06.709Z,70.80
2022-07-30T07:04:43.079Z,70.60
2022-07-30T07:07:13.282Z,70.50
2022-07-30T07:09:44.664Z,70.10
2022-07-30T07:12:30.412Z,69.10
2022-07-30T07:14:57.544Z,68.60
2022-07-30T07:17:24.454Z,67.70
2022-07-30T07:20:11.701Z,67.50
2022-07-30T07:22:48.065Z,67.10
2022-07-30T07:25:15.970Z,66.70
2022-07-30T07:27:42.799Z,66.50
2022-07-30T07:30:10.625Z,66.60
2022-07-30T07:32:38.119Z,66.30
2022-07-30T07:35:06.038Z,65.80
2022-07-30T07:37:35.267Z,65.50
2022-07-30T07:40:02.872Z,65.40
2022-07-30T07:42:32.859Z,65.30
2022-07-30T07:44:59.534Z,65.00
2022-07-30T07:47:31.981Z,64.30
2022-07-30T07:50:09.964Z,63.60
2022-07-30T07:52:36.674Z,63.30
2022-07-30T07:55:03.987Z,62.80
2022-07-30T07:57:41.762Z,62.20
2022-07-30T08:00:12.549Z,61.70
2022-07-30T08:02:46.667Z,61.50
2022-07-30T08:05:14.894Z,60.80
2022-07-30T08:07:45.736Z,60.90
2022-07-30T08:10:16.105Z,60.50
2022-07-30T08:13:48.076Z,59.90
2022-07-30T08:16:19.257Z,59.80
2022-07-30T08:19:24.537Z,59.70
2022-07-30T08:22:07.071Z,59.30
2022-07-30T08:24:34.170Z,59.50
2022-07-30T08:27:01.269Z,59.40
2022-07-30T08:29:29.762Z,59.10
2022-07-30T08:31:56.564Z,58.00
2022-07-30T08:34:25.782Z,57.70
2022-07-30T08:36:54.512Z,58.00
2022-07-30T08:39:21.606Z,58.90
2022-07-30T08:41:49.129Z,59.20
2022-07-30T08:44:18.546Z,57.60
2022-07-30T08:46:50.561Z,55.40
2022-07-30T08:49:38.841Z,54.40
2022-07-30T08:52:08.637Z,52.30
2022-07-30T08:54:57.357Z,50.90
2022-07-30T08:57:24.785Z,49.80
2022-07-30T08:59:59.445Z,48.60
2022-07-30T09:02:31.684Z,47.50
2022-07-30T09:05:03.850Z,45.00
2022-07-30T09:07:33.238Z,44.10
2022-07-30T09:10:01.199Z,42.50
2022-07-30T09:12:36.319Z,42.10
2022-07-30T09:15:20.738Z,42.00
2022-07-30T09:17:56.684Z,42.10
2022-07-30T09:20:36.699Z,42.00
2022-07-30T09:23:08.735Z,42.60
2022-07-30T09:25:44.011Z,40.80
2022-07-30T09:28:37.183Z,39.80
2022-07-30T09:31:23.532Z,38.90
2022-07-30T09:34:29.196Z,38.20
2022-07-30T09:37:12.616Z,37.90
2022-07-30T09:40:11.662Z,36.50
2022-07-30T09:43:11.899Z,36.20
2022-07-30T09:46:11.195Z,35.60
2022-07-30T09:48:39.933Z,35.00
2022-07-30T09:51:07.247Z,35.00
2022-07-30T09:54:01.318Z,34.70
2022-07-30T09:56:30.339Z,34.40
2022-07-30T09:58:58.898Z,33.80
2022-07-30T10:01:47.095Z,33.70
2022-07-30T10:04:33.404Z,32.70
2022-07-30T10:07:25.603Z,32.10
2022-07-30T10:09:59.620Z,32.00
2022-07-30T10:12:27.861Z,32.50
2022-07-30T10:14:59.816Z,32.30
2022-07-30T10:17:28.074Z,32.20
2022-07-30T10:20:27.904Z,32.20
2022-07-30T10:23:27.050Z,32.50
2022-07-30T10:26:20.984Z,32.00
2022-07-30T10:29:34.025Z,31.70
2022-07-30T10:32:01.999Z,31.40
2022-07-30T10:34:34.228Z,31.70
2022-07-30T10:37:06.841Z,31.10
2022-07-30T10:39:47.097Z,30.70
2022-07-30T10:42:25.890Z,30.30
2022-07-30T10:45:47.363Z,30.40
2022-07-30T10:48:15.149Z,30.10
2022-07-30T10:50:52.483Z,30.20
2022-07-30T10:53:42.643Z,30.30
2022-07-30T10:56:13.888Z,30.70
2022-07-30T10:59:03.336Z,30.90
2022-07-30T11:01:51.805Z,31.70
2022-07-30T11:04:29.606Z,31.80
2022-07-30T11:07:21.688Z,31.50
2022-07-30T11:10:08.943Z,32.10
2022-07-30T11:12:42.364Z,32.30
2022-07-30T11:15:18.430Z,31.60
2022-07-30T11:18:00.093Z,31.70
2022-07-30T11:20:30.756Z,32.40
2022-07-30T11:23:14.075Z,31.80
2022-07-30T11:25:52.017Z,32.20
2022-07-30T11:28:40.888Z,31.40
2022-07-30T11:31:30.595Z,29.90
2022-07-30T11:34:31.203Z,30.80
2022-07-30T11:37:21.831Z,31.50
2022-07-30T11:39:56.583Z,31.70
2022-07-30T11:42:33.891Z,31.80
2022-07-30T11:45:15.975Z,31.60
2022-07-30T11:47:47.526Z,32.10
2022-07-30T11:50:24.664Z,32.50
2022-07-30T11:52:59.434Z,32.40
2022-07-30T11:55:30.211Z,32.60
2022-07-30T11:57:59.000Z,32.90
2022-07-30T12:00:33.432Z,33.20
2022-07-30T12:03:03.852Z,34.00
2022-07-30T12:05:33.636Z,34.60
2022-07-30T12:08:00.585Z,34.80
2022-07-30T12:10:27.814Z,35.10
2022-07-30T12:13:07.885Z,35.80
2022-07-30T12:15:37.000Z,36.20
2022-07-30T12:18:25.229Z,35.30
2022-07-30T12:20:59.483Z,35.00
2022-07-30T12:23:27.468Z,35.70
2022-07-30T12:25:57.574Z,35.70
2022-07-30T12:28:30.040Z,35.50
2022-07-30T12:30:58.169Z,35.90
2022-07-30T12:33:25.276Z,35.60
2022-07-30T12:35:51.963Z,36.10
2022-07-30T12:38:20.228Z,35.90
2022-07-30T12:41:04.820Z,35.70
2022-07-30T12:43:54.178Z,35.30
2022-07-30T12:46:23.150Z,34.80
2022-07-30T12:48:49.931Z,35.20
2022-07-30T12:51:16.857Z,34.60
2022-07-30T12:53:44.017Z,33.50
2022-07-30T12:56:17.341Z,33.70
2022-07-30T12:58:44.515Z,34.70
2022-07-30T13:01:12.940Z,34.90
2022-07-30T13:03:40.867Z,35.10
2022-07-30T13:06:23.448Z,35.50
2022-07-30T13:08:58.012Z,34.80
2022-07-30T13:11:42.171Z,34.80
2022-07-30T13:14:18.486Z,34.60
2022-07-30T13:16:50.750Z,34.50
2022-07-30T13:19:17.483Z,34.30
2022-07-30T13:21:49.485Z,34.50
2022-07-30T13:24:17.857Z,34.00
2022-07-30T13:26:45.458Z,33.00
2022-07-30T13:29:13.654Z,32.50
2022-07-30T13:31:42.616Z,32.20
2022-07-30T13:34:13.813Z,31.60
2022-07-30T13:36:41.661Z,31.30
2022-07-30T13:39:08.417Z,30.60
2022-07-30T13:41:36.055Z,31.00
2022-07-30T13:44:03.364Z,31.10
2022-07-30T13:46:30.104Z,31.40
2022-07-30T13:48:56.954Z,31.50
2022-07-30T13:51:23.858Z,32.30
2022-07-30T13:53:50.855Z,32.40
2022-07-30T13:56:19.807Z,32.70
2022-07-30T13:58:47.226Z,33.30
2022-07-30T14:01:18.357Z,33.40
2022-07-30T14:03:50.105Z,34.50
2022-07-30T14:06:18.695Z,35.40
2022-07-30T14:08:45.792Z,35.30
2022-07-30T14:11:12.530Z,35.60
2022-07-30T14:13:39.367Z,35.60
2022-07-30T14:16:22.599Z,35.60
2022-07-30T14:18:53.284Z,35.80
2022-07-30T14:21:20.116Z,36.20
2022-07-30T14:23:46.900Z,36.70
2022-07-30T14:26:14.143Z,37.10
2022-07-30T14:28:41.014Z,37.40
2022-07-30T14:31:07.804Z,37.40
2022-07-30T14:33:34.555Z,37.70
2022-07-30T14:36:01.363Z,37.90
2022-07-30T14:38:28.187Z,38.30
2022-07-30T14:40:54.979Z,37.80
2022-07-30T14:43:21.911Z,37.60
2022-07-30T14:45:50.643Z,37.10
2022-07-30T14:48:17.928Z,36.70
2022-07-30T14:51:10.670Z,36.20
2022-07-30T14:53:32.015Z,36.60
2022-07-30T14:55:58.939Z,36.10
2022-07-30T14:58:26.375Z,35.20
2022-07-30T15:00:53.274Z,34.30
2022-07-30T15:03:20.742Z,33.80
2022-07-30T15:05:52.334Z,34.20
2022-07-30T15:08:19.461Z,34.30
2022-07-30T15:10:46.200Z,34.10
2022-07-30T15:13:13.169Z,34.90
2022-07-30T15:15:41.299Z,35.20
2022-07-30T15:18:10.740Z,35.10
2022-07-30T15:20:37.722Z,35.00
2022-07-30T15:23:04.741Z,35.00
2022-07-30T15:25:32.373Z,35.10
2022-07-30T15:27:59.150Z,35.40
2022-07-30T15:30:25.942Z,35.50
2022-07-30T15:32:54.362Z,35.50
2022-07-30T15:35:21.500Z,35.70
2022-07-30T15:37:48.537Z,36.00
2022-07-30T15:40:15.307Z,36.40
2022-07-30T15:42:42.668Z,37.20
2022-07-30T15:45:18.311Z,37.40
2022-07-30T15:47:47.914Z,37.60
2022-07-30T15:50:16.578Z,37.80
2022-07-30T15:52:44.325Z,38.10
2022-07-30T15:55:11.307Z,38.50
2022-07-30T15:57:38.156Z,38.80
2022-07-30T16:00:08.512Z,39.40
2022-07-30T16:02:42.874Z,40.10
2022-07-30T16:05:13.902Z,40.30
2022-07-30T16:07:41.418Z,40.80
2022-07-30T16:10:09.383Z,40.50
2022-07-30T16:12:36.280Z,40.20
2022-07-30T16:15:03.197Z,40.40
2022-07-30T16:17:29.960Z,40.60
2022-07-30T16:19:56.662Z,40.50
2022-07-30T16:22:24.058Z,40.20
2022-07-30T16:24:51.750Z,40.10
2022-07-30T16:27:19.015Z,39.70
2022-07-30T16:29:45.748Z,39.40
2022-07-30T16:32:12.712Z,39.20
2022-07-30T16:34:39.484Z,39.30
2022-07-30T16:37:06.330Z,39.30
2022-07-30T16:39:33.144Z,39.40
2022-07-30T16:42:00.214Z,39.50
2022-07-30T16:44:31.553Z,39.70
2022-07-30T16:46:58.273Z,40.00
2022-07-30T16:49:25.183Z,40.30
2022-07-30T16:51:52.216Z,40.70
2022-07-30T16:54:18.995Z,41.10
2022-07-30T16:56:45.745Z,41.50
2022-07-30T16:59:14.348Z,41.70
2022-07-30T17:01:41.122Z,41.90
2022-07-30T17:04:07.889Z,42.20
2022-07-30T17:06:35.598Z,42.70
2022-07-30T17:09:02.464Z,42.80
2022-07-30T17:11:47.527Z,43.00
2022-07-30T17:14:18.907Z,43.20
2022-07-30T17:16:45.645Z,43.40
2022-07-30T17:19:12.509Z,43.40
2022-07-30T17:21:39.256Z,43.60
2022-07-30T17:24:11.225Z,43.30
2022-07-30T17:26:43.097Z,43.30
2022-07-30T17:29:14.261Z,43.40
2022-07-30T17:31:45.286Z,43.60
2022-07-30T17:34:14.317Z,44.00
2022-07-30T17:36:51.608Z,43.80
2022-07-30T17:40:22.966Z,43.90
2022-07-30T17:42:11.269Z,43.90
2022-07-30T17:44:39.540Z,44.00
2022-07-30T17:47:11.009Z,43.90
2022-07-30T17:49:40.780Z,44.20
2022-07-30T17:52:07.590Z,44.10
2022-07-30T17:54:34.575Z,44.40
2022-07-30T17:57:01.340Z,44.80
2022-07-30T17:59:30.855Z,45.10
2022-07-30T18:01:59.807Z,45.30
2022-07-30T18:04:27.350Z,45.50
2022-07-30T18:06:54.203Z,45.60
2022-07-30T18:09:21.076Z,45.90
2022-07-30T18:11:48.943Z,46.10
2022-07-30T18:14:15.861Z,46.40
2022-07-30T18:16:42.922Z,46.60
2022-07-30T18:19:22.751Z,46.60
2022-07-30T18:21:54.207Z,46.70
2022-07-30T18:24:24.625Z,46.60
2022-07-30T18:26:52.291Z,46.70
2022-07-30T18:29:19.184Z,46.80
2022-07-30T18:31:48.068Z,47.20
2022-07-30T18:34:15.030Z,47.20
2022-07-30T18:36:41.984Z,47.10
2022-07-30T18:39:08.884Z,47.40
2022-07-30T18:41:35.804Z,47.60
2022-07-30T18:44:02.518Z,47.50
2022-07-30T18:46:29.227Z,47.60
2022-07-30T18:48:56.837Z,47.70
2022-07-30T18:51:25.172Z,47.90
2022-07-30T18:53:53.089Z,48.10
2022-07-30T18:56:20.491Z,48.10
2022-07-30T18:58:47.294Z,48.40
2022-07-30T19:01:14.133Z,48.50
2022-07-30T19:03:40.956Z,48.50
2022-07-30T19:06:07.711Z,48.60
2022-07-30T19:08:34.547Z,48.70
2022-07-30T19:11:01.388Z,48.50
2022-07-30T19:13:28.133Z,48.70
2022-07-30T19:15:55.779Z,49.10
2022-07-30T19:18:22.718Z,49.50
2022-07-30T19:20:50.691Z,49.50
2022-07-30T19:23:18.539Z,49.30
2022-07-30T19:25:45.324Z,49.40
2022-07-30T19:28:13.771Z,49.60
2022-07-30T19:30:40.885Z,49.90
2022-07-30T19:33:14.646Z,49.70
2022-07-30T19:35:42.341Z,49.60
2022-07-30T19:38:09.961Z,50.20
2022-07-30T19:40:42.103Z,50.10
2022-07-30T19:43:10.159Z,50.10
2022-07-30T19:45:47.341Z,50.40
2022-07-30T19:48:29.513Z,50.70
2022-07-30T19:51:00.767Z,50.50
2022-07-30T19:53:31.132Z,50.70
2022-07-30T19:56:01.603Z,51.00
2022-07-30T19:58:28.580Z,51.10
2022-07-30T20:00:55.380Z,50.80
2022-07-30T20:03:25.760Z,51.00
2022-07-30T20:05:59.505Z,51.20
2022-07-30T20:08:27.512Z,51.30
2022-07-30T20:10:57.609Z,51.50
2022-07-30T20:13:45.485Z,51.40
2022-07-30T20:16:14.196Z,51.40
2022-07-30T20:18:42.880Z,51.30
2022-07-30T20:21:15.111Z,51.30
2022-07-30T20:23:42.866Z,51.30
2022-07-30T20:26:13.631Z,51.40
2022-07-30T20:28:47.572Z,51.80
2022-07-30T20:31:20.151Z,51.80
2022-07-30T20:33:50.193Z,51.90
2022-07-30T20:36:18.701Z,51.90
2022-07-30T20:38:49.207Z,52.00
2022-07-30T20:41:16.607Z,52.40
2022-07-30T20:43:45.902Z,52.40
2022-07-30T20:46:23.098Z,52.40
2022-07-30T20:48:53.963Z,52.40
2022-07-30T20:51:20.812Z,52.30
2022-07-30T20:53:56.176Z,52.40
2022-07-30T20:56:26.117Z,52.50
2022-07-30T20:58:52.885Z,52.90
2022-07-30T21:01:22.410Z,53.20
2022-07-30T21:03:51.336Z,53.20
2022-07-30T21:06:19.220Z,53.30
2022-07-30T21:08:45.972Z,53.50
2022-07-30T21:11:15.092Z,53.70
2022-07-30T21:13:42.480Z,53.70
2022-07-30T21:16:15.419Z,53.90
2022-07-30T21:18:50.000Z,54.00
2022-07-30T21:21:29.312Z,54.00
2022-07-30T21:24:05.022Z,54.20
2022-07-30T21:26:32.083Z,54.30
2022-07-30T21:29:00.659Z,54.40
2022-07-30T21:31:34.984Z,54.60
2022-07-30T21:34:14.652Z,54.50
2022-07-30T21:36:42.701Z,54.80
2022-07-30T21:39:09.910Z,54.90
2022-07-30T21:41:41.112Z,54.90
2022-07-30T21:44:09.806Z,54.90
2022-07-30T21:46:37.708Z,54.90
2022-07-30T21:49:06.958Z,54.90
2022-07-30T21:51:35.514Z,55.00
2022-07-30T21:54:07.077Z,55.00
2022-07-30T21:56:34.308Z,55.30
2022-07-30T21:59:01.238Z,55.40
2022-07-30T22:01:28.062Z,55.30
2022-07-30T22:04:01.600Z,55.40
2022-07-30T22:06:39.174Z,55.20
2022-07-30T22:11:55.583Z,55.10
2022-07-30T22:14:22.986Z,55.10
2022-07-30T22:16:52.690Z,55.00
2022-07-30T22:19:21.813Z,55.00
2022-07-30T22:21:49.561Z,55.10
2022-07-30T22:24:29.531Z,55.10
2022-07-30T22:27:11.658Z,55.10
2022-07-30T22:29:42.985Z,55.60
2022-07-30T22:32:11.557Z,55.40
2022-07-30T22:34:38.367Z,55.50
2022-07-30T22:37:12.644Z,55.60
2022-07-30T22:39:51.049Z,55.80
2022-07-30T22:42:24.452Z,56.00
2022-07-30T22:44:52.229Z,55.90
2022-07-30T22:47:21.414Z,56.00
2022-07-30T22:50:08.113Z,55.90
2022-07-30T22:52:50.219Z,56.40
2022-07-30T22:55:27.388Z,56.50
2022-07-30T22:57:54.399Z,56.60
2022-07-30T23:00:27.408Z,56.80
2022-07-30T23:02:55.637Z,56.90
2022-07-30T23:05:23.132Z,57.00
2022-07-30T23:07:50.510Z,57.20
2022-07-30T23:10:18.675Z,57.30
2022-07-30T23:12:28.284Z,55.10
2022-07-30T23:12:51.225Z,57.40
2022-07-30T23:15:18.815Z,57.70
2022-07-30T23:17:45.727Z,57.70
2022-07-30T23:20:15.901Z,57.80
2022-07-30T23:22:42.704Z,58.00
2022-07-30T23:25:11.322Z,58.00
2022-07-30T23:27:39.286Z,58.00
2022-07-30T23:30:11.185Z,58.00
2022-07-30T23:32:39.781Z,57.90
2022-07-30T23:35:08.720Z,57.80
2022-07-30T23:37:47.651Z,58.00
2022-07-30T23:40:15.973Z,58.10
2022-07-30T23:42:42.773Z,58.20
2022-07-30T23:45:09.946Z,58.10
2022-07-30T23:47:51.268Z,57.90
2022-07-30T23:50:25.217Z,58.20
2022-07-30T23:52:52.035Z,57.90
2022-07-30T23:55:18.960Z,57.90
2022-07-30T23:57:45.700Z,57.80
